New River MCAS /H/ /Mccutcheon Fld/ Airport
KNCA : now visible

Airfield :











YOU CAN JOIN US ON...

 
LOGIN :

Register | Disclaimer

   EN    FR    IT 

 









Legend :    VFR   Marginal VFR   IFR   Intensive IFR   Very Intensive IFR
Visi :
Ceiling :
>= 8 km
>= 3000ft
5 to 8 km
1000 to 3000 ft
1500m to 5 km
500 to 1000 ft
800 to 1500m
200 to 500 ft
< 800m
< 200 ft
Symbols :   Thunderstorms  Fog  Heavy snow  Heavy precipitations  Wind > 20 kt






- Airport Elevation : 26 ft


KNCA - New River MCAS /H/ /Mccutcheon Fld/

CURRENT METAR :
  • 271840Z AUTO 20012G24KT 10SM BKN011 OVC017 22/22 A2972 RMK AO2 RAE19 P0001 T02220222

EXPIRED METARs :
  • 271756Z AUTO 19011G23KT 10SM -RA OVC009 21/21 A2975 RMK AO2 PK WND 18029/1727 CIG 007V013 SLP078 P0000 60000 T02110211 10211 20172 58050
  • 271720Z AUTO 18012G22KT 10SM -RA BKN009 OVC014 21/21 A2979 RMK AO2 CIG 007V011 P0000 T02060206
  • 271656Z AUTO 17013G20KT 10SM -RA BKN010 BKN033 OVC041 20/20 A2981 RMK AO2 PK WND 16026/1618 RAB06E17B53 SLP096 P0000 T02000200
  • 271556Z AUTO 18012G24KT 10SM BKN010 BKN035 OVC042 20/20 A2987 RMK AO2 RAE40 SLP118 P0000 T02000200

Expired Forecast.
KZDC FIR / North America



MET'MAP, your aeronautical weather chart ! - Copyright ORBIFLY December 2007 - Disclaimer

ORBIFLY MET'MAP TEAM :

Programming & Development : Alexandra Zaïnal
Original concept : Baudouin d'Aumeries
Technical & hardware support : Manuel Goepfert
Assistance : Marc-Olivier Méhu




SOURCES & CREDITS :

   NOAA       Earth
Advisory